Time;durP1;ratioP1;P1;durP2;ratioP2;P2;SDS_P1;SDS_P2;PMS_P1;PMS_P2;Temp;Humidity;BMP_temperature;BMP_pressure;BME280_temperature;BME280_humidity;BME280_pressure;Samples;Min_cycle;Max_cycle;Signal;HPM_P1;HPM_P2
2023/04/11 00:00:39;;;;;;;0.00;0.00;;;;;;;;;;1743940;28;20245;-74
2023/04/11 00:01:31;;;;;;;0.00;0.00;;;;;;;;;;1736276;28;20218;-74
2023/04/11 00:02:23;;;;;;;0.00;0.00;;;;;;;;;;1738133;28;20621;-74
2023/04/11 00:03:15;;;;;;;0.00;0.00;;;;;;;;;;1739940;28;20251;-74
2023/04/11 00:04:09;;;;;;;0.00;0.00;;;;;;;;;;1739266;28;20207;-74
2023/04/11 00:05:04;;;;;;;0.00;0.00;;;;;;;;;;1743391;28;20222;-74
2023/04/11 00:05:56;;;;;;;0.00;0.00;;;;;;;;;;1739502;28;20215;-74
2023/04/11 00:06:47;;;;;;;0.00;0.00;;;;;;;;;;1741328;28;20529;-74
2023/04/11 00:07:39;;;;;;;0.00;0.00;;;;;;;;;;1740014;28;20222;-74
2023/04/11 00:08:30;;;;;;;0.00;0.00;;;;;;;;;;1738902;28;20212;-75
2023/04/11 00:09:22;;;;;;;0.00;0.00;;;;;;;;;;1738958;28;20209;-75
2023/04/11 00:10:13;;;;;;;0.00;0.00;;;;;;;;;;1745227;28;20299;-75
2023/04/11 00:11:06;;;;;;;0.00;0.00;;;;;;;;;;1738372;28;20277;-75
2023/04/11 00:11:57;;;;;;;0.00;0.00;;;;;;;;;;1742011;28;20570;-75
2023/04/11 00:12:49;;;;;;;0.10;0.10;;;;;;;;;;1738694;28;20242;-75
2023/04/11 00:13:41;;;;;;;0.00;0.00;;;;;;;;;;1739341;28;20211;-76
2023/04/11 00:14:34;;;;;;;0.00;0.00;;;;;;;;;;1738737;28;20204;-76
2023/04/11 00:15:25;;;;;;;0.00;0.00;;;;;;;;;;1744247;28;20199;-75
2023/04/11 00:16:19;;;;;;;0.00;0.00;;;;;;;;;;1734989;28;20666;-75
2023/04/11 00:17:11;;;;;;;0.00;0.00;;;;;;;;;;1741993;28;20208;-75
2023/04/11 00:18:03;;;;;;;0.00;0.00;;;;;;;;;;1739454;28;20299;-75
2023/04/11 00:18:55;;;;;;;0.00;0.00;;;;;;;;;;1738993;28;20615;-75
2023/04/11 00:19:48;;;;;;;0.00;0.00;;;;;;;;;;1742517;28;20561;-75
2023/04/11 00:20:39;;;;;;;0.00;0.00;;;;;;;;;;1743262;28;20228;-75
2023/04/11 00:21:31;;;;;;;0.00;0.00;;;;;;;;;;1740219;28;20213;-75
2023/04/11 00:22:23;;;;;;;0.00;0.00;;;;;;;;;;1742728;28;20211;-75
2023/04/11 00:23:15;;;;;;;0.00;0.00;;;;;;;;;;1740514;28;20219;-75
2023/04/11 00:24:06;;;;;;;0.00;0.00;;;;;;;;;;1740538;28;20320;-75
2023/04/11 00:24:58;;;;;;;0.00;0.00;;;;;;;;;;1743830;28;20294;-75
2023/04/11 00:25:49;;;;;;;0.00;0.00;;;;;;;;;;1742032;28;20704;-75
2023/04/11 00:26:41;;;;;;;0.00;0.00;;;;;;;;;;1741625;28;20695;-75
2023/04/11 00:27:32;;;;;;;0.00;0.00;;;;;;;;;;1744249;28;20478;-75
2023/04/11 00:28:24;;;;;;;0.00;0.00;;;;;;;;;;1740056;28;20207;-75
2023/04/11 00:29:15;;;;;;;0.00;0.00;;;;;;;;;;1740036;28;20298;-75
2023/04/11 00:30:09;;;;;;;0.00;0.00;;;;;;;;;;1740266;28;20617;-75
2023/04/11 00:31:01;;;;;;;0.00;0.00;;;;;;;;;;1742711;28;20222;-75
2023/04/11 00:31:55;;;;;;;0.00;0.00;;;;;;;;;;1743103;28;20215;-75
2023/04/11 00:32:46;;;;;;;0.00;0.00;;;;;;;;;;1740100;28;20246;-75
2023/04/11 00:33:38;;;;;;;0.00;0.00;;;;;;;;;;1740271;28;20208;-75
2023/04/11 00:34:29;;;;;;;0.00;0.00;;;;;;;;;;1743432;28;20692;-75
2023/04/11 00:35:21;;;;;;;0.00;0.00;;;;;;;;;;1745820;28;20658;-75
2023/04/11 00:36:12;;;;;;;0.00;0.00;;;;;;;;;;1743131;28;20808;-75
2023/04/11 00:37:04;;;;;;;0.00;0.00;;;;;;;;;;1743060;28;20598;-75
2023/04/11 00:37:57;;;;;;;0.00;0.00;;;;;;;;;;1743324;28;20220;-75
2023/04/11 00:38:49;;;;;;;0.00;0.00;;;;;;;;;;1744426;28;20298;-75
2023/04/11 00:39:40;;;;;;;0.00;0.00;;;;;;;;;;1741239;28;20215;-75
2023/04/11 00:40:32;;;;;;;0.00;0.00;;;;;;;;;;1744559;28;20265;-75
2023/04/11 00:41:23;;;;;;;0.00;0.00;;;;;;;;;;1742565;28;20240;-75
2023/04/11 00:42:15;;;;;;;0.00;0.00;;;;;;;;;;1742683;28;20277;-75
2023/04/11 00:43:06;;;;;;;0.00;0.00;;;;;;;;;;1740247;28;20702;-75
2023/04/11 00:43:58;;;;;;;0.00;0.00;;;;;;;;;;1739966;28;20812;-75
2023/04/11 00:44:49;;;;;;;0.00;0.00;;;;;;;;;;1742364;28;20272;-75
2023/04/11 00:45:42;;;;;;;0.10;0.10;;;;;;;;;;1744243;28;20212;-75
2023/04/11 00:46:35;;;;;;;0.00;0.00;;;;;;;;;;1741576;28;20602;-75
2023/04/11 00:47:27;;;;;;;0.00;0.00;;;;;;;;;;1742245;28;20584;-75
2023/04/11 00:48:18;;;;;;;0.00;0.00;;;;;;;;;;1738761;28;20213;-75
2023/04/11 00:49:10;;;;;;;0.00;0.00;;;;;;;;;;1740047;28;20219;-75
2023/04/11 00:50:03;;;;;;;0.00;0.00;;;;;;;;;;1743625;28;20212;-75
2023/04/11 00:50:55;;;;;;;0.00;0.00;;;;;;;;;;1744293;28;20207;-75
2023/04/11 00:51:46;;;;;;;0.00;0.00;;;;;;;;;;1741874;28;20515;-75
2023/04/11 00:52:38;;;;;;;0.00;0.00;;;;;;;;;;1740873;28;20271;-75
2023/04/11 00:53:31;;;;;;;0.00;0.00;;;;;;;;;;1739765;28;20207;-75
2023/04/11 00:54:28;;;;;;;0.00;0.00;;;;;;;;;;1739545;28;20216;-75
2023/04/11 00:55:19;;;;;;;0.00;0.00;;;;;;;;;;1733862;28;20188;-75
2023/04/11 00:56:11;;;;;;;0.00;0.00;;;;;;;;;;1742805;28;20725;-75
2023/04/11 00:57:02;;;;;;;0.00;0.00;;;;;;;;;;1743006;28;20210;-75
2023/04/11 00:57:55;;;;;;;0.00;0.00;;;;;;;;;;1739968;28;20208;-75
2023/04/11 00:58:46;;;;;;;0.00;0.00;;;;;;;;;;1739894;28;20377;-75
2023/04/11 00:59:38;;;;;;;0.00;0.00;;;;;;;;;;1740686;28;20365;-75
2023/04/11 01:00:32;;;;;;;0.00;0.00;;;;;;;;;;1744107;28;20276;-75
2023/04/11 01:01:28;;;;;;;0.00;0.00;;;;;;;;;;1738372;28;20231;-75
2023/04/11 01:02:19;;;;;;;0.00;0.00;;;;;;;;;;1735899;28;20220;-75
2023/04/11 01:03:12;;;;;;;0.00;0.00;;;;;;;;;;1740135;28;20214;-75
2023/04/11 01:04:03;;;;;;;0.00;0.00;;;;;;;;;;1740122;28;20264;-75
2023/04/11 01:04:54;;;;;;;0.00;0.00;;;;;;;;;;1742530;28;20555;-75
2023/04/11 01:05:47;;;;;;;0.00;0.00;;;;;;;;;;1744338;28;20280;-74
2023/04/11 01:06:38;;;;;;;0.00;0.00;;;;;;;;;;1741504;28;20216;-74
2023/04/11 01:07:31;;;;;;;0.05;0.05;;;;;;;;;;1741407;28;20207;-74
2023/04/11 01:08:22;;;;;;;0.00;0.00;;;;;;;;;;1740037;28;20212;-74
2023/04/11 01:09:14;;;;;;;0.00;0.00;;;;;;;;;;1740381;28;20248;-74
2023/04/11 01:10:07;;;;;;;0.00;0.00;;;;;;;;;;1745454;28;20288;-74
2023/04/11 01:10:59;;;;;;;0.00;0.00;;;;;;;;;;1743858;28;20248;-74
2023/04/11 01:11:50;;;;;;;0.00;0.00;;;;;;;;;;1746779;28;20802;-75
2023/04/11 01:12:42;;;;;;;0.00;0.00;;;;;;;;;;1739644;28;20203;-74
2023/04/11 01:13:34;;;;;;;0.00;0.00;;;;;;;;;;1740458;28;20227;-75
2023/04/11 01:14:27;;;;;;;0.00;0.00;;;;;;;;;;1740073;28;20552;-75
2023/04/11 01:15:18;;;;;;;0.10;0.10;;;;;;;;;;1739451;28;20798;-75
2023/04/11 01:16:10;;;;;;;0.00;0.00;;;;;;;;;;1739643;28;20287;-75
2023/04/11 01:17:03;;;;;;;0.00;0.00;;;;;;;;;;1736139;28;20216;-75
2023/04/11 01:17:56;;;;;;;0.00;0.00;;;;;;;;;;1736393;28;20220;-74
2023/04/11 01:18:47;;;;;;;0.00;0.00;;;;;;;;;;1737935;28;20227;-74
2023/04/11 01:19:39;;;;;;;0.00;0.00;;;;;;;;;;1738699;28;20207;-74
2023/04/11 01:20:32;;;;;;;0.00;0.00;;;;;;;;;;1737101;28;20246;-74
2023/04/11 01:21:25;;;;;;;0.00;0.00;;;;;;;;;;1739901;28;20203;-74
2023/04/11 01:22:16;;;;;;;0.00;0.00;;;;;;;;;;1735790;28;20268;-74
2023/04/11 01:23:09;;;;;;;0.00;0.00;;;;;;;;;;1738646;28;20596;-74
2023/04/11 01:24:02;;;;;;;0.00;0.00;;;;;;;;;;1738668;28;20212;-74
2023/04/11 01:24:55;;;;;;;0.00;0.00;;;;;;;;;;1736450;28;20210;-74
2023/04/11 01:25:46;;;;;;;0.00;0.00;;;;;;;;;;1738521;28;20609;-74
2023/04/11 01:26:38;;;;;;;0.00;0.00;;;;;;;;;;1738439;28;20463;-74
2023/04/11 01:27:29;;;;;;;0.00;0.00;;;;;;;;;;1737239;28;20212;-74
2023/04/11 01:28:21;;;;;;;0.00;0.00;;;;;;;;;;1739164;28;20211;-74
2023/04/11 01:29:12;;;;;;;0.00;0.00;;;;;;;;;;1736864;28;20219;-74
2023/04/11 01:30:04;;;;;;;0.00;0.00;;;;;;;;;;1735547;28;20200;-74
2023/04/11 01:30:56;;;;;;;0.00;0.00;;;;;;;;;;1738188;28;20254;-74
2023/04/11 01:31:48;;;;;;;0.00;0.00;;;;;;;;;;1736494;28;20242;-74
2023/04/11 01:32:39;;;;;;;0.00;0.00;;;;;;;;;;1732868;28;20285;-74
2023/04/11 01:33:31;;;;;;;0.00;0.00;;;;;;;;;;1736391;28;20218;-74
2023/04/11 01:34:27;;;;;;;0.00;0.00;;;;;;;;;;1735341;28;20215;-74
2023/04/11 01:35:18;;;;;;;0.00;0.00;;;;;;;;;;1734838;28;20317;-74
2023/04/11 01:36:10;;;;;;;0.00;0.00;;;;;;;;;;1736913;28;20290;-74
2023/04/11 01:37:01;;;;;;;0.00;0.00;;;;;;;;;;1738694;28;20207;-74
2023/04/11 01:37:53;;;;;;;0.00;0.00;;;;;;;;;;1738416;28;20200;-74
2023/04/11 01:38:44;;;;;;;0.00;0.00;;;;;;;;;;1738280;28;20231;-74
2023/04/11 01:39:38;;;;;;;0.00;0.00;;;;;;;;;;1738335;28;20207;-74
2023/04/11 01:40:31;;;;;;;0.00;0.00;;;;;;;;;;1735760;28;20215;-75
2023/04/11 01:41:24;;;;;;;0.00;0.00;;;;;;;;;;1733127;28;20804;-75
2023/04/11 01:42:15;;;;;;;0.00;0.00;;;;;;;;;;1735308;28;20645;-75
2023/04/11 01:43:08;;;;;;;0.00;0.00;;;;;;;;;;1735196;28;20212;-74
2023/04/11 01:43:59;;;;;;;0.00;0.00;;;;;;;;;;1734891;28;20212;-74
2023/04/11 01:44:52;;;;;;;0.00;0.00;;;;;;;;;;1739322;28;20663;-74
2023/04/11 01:45:43;;;;;;;0.00;0.00;;;;;;;;;;1737061;28;20239;-74
2023/04/11 01:46:36;;;;;;;0.00;0.00;;;;;;;;;;1738249;28;20230;-74
2023/04/11 01:47:27;;;;;;;0.00;0.00;;;;;;;;;;1739243;28;20629;-74
2023/04/11 01:48:19;;;;;;;0.00;0.00;;;;;;;;;;1738543;28;20608;-74
2023/04/11 01:49:10;;;;;;;0.00;0.00;;;;;;;;;;1738407;28;20807;-74
2023/04/11 01:50:05;;;;;;;0.00;0.00;;;;;;;;;;1735069;28;20258;-74
2023/04/11 01:50:56;;;;;;;0.00;0.00;;;;;;;;;;1736353;28;20212;-75
2023/04/11 01:51:48;;;;;;;0.00;0.00;;;;;;;;;;1736408;28;20276;-75
2023/04/11 01:52:40;;;;;;;0.00;0.00;;;;;;;;;;1736511;28;20602;-75
2023/04/11 01:53:32;;;;;;;0.00;0.00;;;;;;;;;;1736858;28;20582;-75
2023/04/11 01:54:23;;;;;;;0.00;0.00;;;;;;;;;;1735393;28;20581;-75
2023/04/11 01:55:16;;;;;;;0.00;0.00;;;;;;;;;;1735366;28;20226;-75
2023/04/11 01:56:08;;;;;;;0.00;0.00;;;;;;;;;;1736202;28;20211;-75
2023/04/11 01:57:00;;;;;;;0.00;0.00;;;;;;;;;;1738635;28;20213;-75
2023/04/11 01:57:51;;;;;;;0.00;0.00;;;;;;;;;;1731876;28;20259;-75
2023/04/11 01:58:43;;;;;;;0.00;0.00;;;;;;;;;;1737294;28;20249;-75
2023/04/11 01:59:34;;;;;;;0.00;0.00;;;;;;;;;;1738657;28;20211;-75
2023/04/11 02:00:26;;;;;;;0.00;0.00;;;;;;;;;;1736212;28;20336;-75
2023/04/11 02:01:18;;;;;;;0.00;0.00;;;;;;;;;;1736484;28;20229;-75
2023/04/11 02:02:09;;;;;;;0.00;0.00;;;;;;;;;;1734501;28;20212;-75
2023/04/11 02:03:01;;;;;;;0.00;0.00;;;;;;;;;;1741745;28;20207;-75
2023/04/11 02:03:52;;;;;;;0.00;0.00;;;;;;;;;;1738712;28;20250;-75
2023/04/11 02:04:44;;;;;;;0.00;0.00;;;;;;;;;;1743344;28;20665;-75
2023/04/11 02:05:35;;;;;;;0.00;0.00;;;;;;;;;;1741493;28;20814;-75
2023/04/11 02:06:27;;;;;;;0.00;0.00;;;;;;;;;;1739443;28;20544;-75
2023/04/11 02:07:19;;;;;;;0.00;0.00;;;;;;;;;;1735523;28;20297;-76
2023/04/11 02:08:11;;;;;;;0.00;0.00;;;;;;;;;;1735016;28;20212;-75
2023/04/11 02:09:03;;;;;;;0.00;0.00;;;;;;;;;;1738365;28;20216;-75
2023/04/11 02:09:55;;;;;;;0.00;0.00;;;;;;;;;;1736207;28;20930;-76
2023/04/11 02:10:47;;;;;;;0.00;0.00;;;;;;;;;;1736104;28;20208;-76
2023/04/11 02:11:39;;;;;;;0.00;0.00;;;;;;;;;;1737909;28;20710;-76
2023/04/11 02:12:30;;;;;;;0.00;0.00;;;;;;;;;;1738653;28;20208;-75
2023/04/11 02:13:21;;;;;;;0.00;0.00;;;;;;;;;;1738485;28;20222;-75
2023/04/11 02:14:14;;;;;;;0.00;0.00;;;;;;;;;;1737495;28;20392;-76
2023/04/11 02:15:05;;;;;;;0.00;0.00;;;;;;;;;;1732124;28;20240;-76
2023/04/11 02:15:57;;;;;;;0.00;0.00;;;;;;;;;;1729208;28;20303;-75
2023/04/11 02:16:49;;;;;;;0.00;0.00;;;;;;;;;;1736210;28;20280;-75
2023/04/11 02:17:43;;;;;;;0.00;0.00;;;;;;;;;;1736761;28;20644;-75
2023/04/11 02:18:35;;;;;;;0.00;0.00;;;;;;;;;;1736551;28;20265;-75
2023/04/11 02:19:28;;;;;;;0.00;0.00;;;;;;;;;;1738993;28;20227;-75
2023/04/11 02:20:20;;;;;;;0.00;0.00;;;;;;;;;;1731995;28;20254;-75
2023/04/11 02:21:12;;;;;;;0.00;0.00;;;;;;;;;;1729970;28;20242;-76
2023/04/11 02:22:03;;;;;;;0.00;0.00;;;;;;;;;;1732245;28;20308;-76
2023/04/11 02:22:57;;;;;;;0.00;0.00;;;;;;;;;;1738561;28;20534;-75
2023/04/11 02:23:48;;;;;;;0.00;0.00;;;;;;;;;;1736277;28;20721;-77
2023/04/11 02:24:40;;;;;;;0.00;0.00;;;;;;;;;;1736626;28;20294;-77
2023/04/11 02:25:31;;;;;;;0.00;0.00;;;;;;;;;;1732016;28;20216;-76
2023/04/11 02:26:25;;;;;;;0.00;0.00;;;;;;;;;;1732624;28;20566;-76
2023/04/11 02:27:16;;;;;;;0.00;0.00;;;;;;;;;;1735936;28;20628;-76
2023/04/11 02:28:08;;;;;;;0.00;0.00;;;;;;;;;;1738400;28;20258;-75
2023/04/11 02:28:59;;;;;;;0.00;0.00;;;;;;;;;;1734838;28;20216;-76
2023/04/11 02:29:51;;;;;;;0.00;0.00;;;;;;;;;;1732037;28;20573;-76
2023/04/11 02:30:42;;;;;;;0.00;0.00;;;;;;;;;;1732113;28;20212;-76
2023/04/11 02:31:35;;;;;;;0.00;0.00;;;;;;;;;;1731987;28;20208;-76
2023/04/11 02:32:26;;;;;;;0.00;0.00;;;;;;;;;;1731833;28;20700;-76
2023/04/11 02:33:19;;;;;;;0.00;0.00;;;;;;;;;;1734509;28;20243;-75
2023/04/11 02:34:10;;;;;;;0.00;0.00;;;;;;;;;;1738350;28;20223;-75
2023/04/11 02:35:03;;;;;;;0.00;0.00;;;;;;;;;;1734683;28;20704;-75
2023/04/11 02:35:54;;;;;;;0.00;0.00;;;;;;;;;;1728919;28;20216;-75
2023/04/11 02:36:47;;;;;;;0.00;0.00;;;;;;;;;;1735950;28;20545;-75
2023/04/11 02:37:38;;;;;;;0.00;0.00;;;;;;;;;;1737012;28;20548;-75
2023/04/11 02:38:30;;;;;;;0.00;0.00;;;;;;;;;;1736316;28;20297;-76
2023/04/11 02:39:22;;;;;;;0.00;0.00;;;;;;;;;;1738352;28;20234;-76
2023/04/11 02:40:14;;;;;;;0.00;0.00;;;;;;;;;;1733426;28;20204;-76
2023/04/11 02:41:07;;;;;;;0.00;0.00;;;;;;;;;;1732547;28;20277;-76
2023/04/11 02:42:00;;;;;;;0.00;0.00;;;;;;;;;;1735994;28;20208;-76
2023/04/11 02:42:51;;;;;;;0.00;0.00;;;;;;;;;;1734898;28;20226;-75
2023/04/11 02:43:43;;;;;;;0.00;0.00;;;;;;;;;;1737519;28;20199;-76
2023/04/11 02:44:34;;;;;;;0.00;0.00;;;;;;;;;;1738536;28;20643;-76
2023/04/11 02:45:26;;;;;;;0.00;0.00;;;;;;;;;;1732166;28;20241;-76
2023/04/11 02:46:17;;;;;;;0.00;0.00;;;;;;;;;;1733270;28;20216;-76
2023/04/11 02:47:09;;;;;;;0.05;0.05;;;;;;;;;;1735886;28;20662;-76
2023/04/11 02:48:00;;;;;;;0.00;0.00;;;;;;;;;;1738780;28;20514;-75
2023/04/11 02:48:51;;;;;;;0.00;0.00;;;;;;;;;;1736518;28;20467;-75
2023/04/11 02:49:43;;;;;;;0.00;0.00;;;;;;;;;;1737579;28;20204;-75
2023/04/11 02:50:35;;;;;;;0.00;0.00;;;;;;;;;;1729133;28;20294;-75
2023/04/11 02:51:27;;;;;;;0.00;0.00;;;;;;;;;;1731646;28;20273;-75
2023/04/11 02:52:18;;;;;;;0.00;0.00;;;;;;;;;;1734047;28;20704;-75
2023/04/11 02:53:10;;;;;;;0.10;0.10;;;;;;;;;;1739157;28;20316;-75
2023/04/11 02:54:01;;;;;;;0.00;0.00;;;;;;;;;;1735518;28;20274;-75
2023/04/11 02:54:53;;;;;;;0.00;0.00;;;;;;;;;;1736616;28;20200;-75
2023/04/11 02:55:44;;;;;;;0.00;0.00;;;;;;;;;;1732274;28;20635;-75
2023/04/11 02:56:37;;;;;;;0.00;0.00;;;;;;;;;;1736846;28;20226;-75
2023/04/11 02:57:29;;;;;;;0.00;0.00;;;;;;;;;;1737021;28;20211;-75
2023/04/11 02:58:24;;;;;;;0.00;0.00;;;;;;;;;;1732914;28;20744;-75
2023/04/11 02:59:15;;;;;;;0.00;0.00;;;;;;;;;;1733656;28;20236;-75
2023/04/11 03:00:08;;;;;;;0.00;0.00;;;;;;;;;;1735237;28;20618;-75
2023/04/11 03:00:59;;;;;;;0.00;0.00;;;;;;;;;;1724156;28;20208;-75
2023/04/11 03:01:57;;;;;;;0.00;0.00;;;;;;;;;;1735797;28;20299;-75
2023/04/11 03:02:48;;;;;;;0.00;0.00;;;;;;;;;;1731941;28;20212;-75
2023/04/11 03:03:40;;;;;;;0.00;0.00;;;;;;;;;;1731706;28;20266;-75
2023/04/11 03:04:31;;;;;;;0.00;0.00;;;;;;;;;;1736812;28;20216;-75
2023/04/11 03:05:23;;;;;;;0.00;0.00;;;;;;;;;;1731050;28;20222;-75
2023/04/11 03:06:15;;;;;;;0.00;0.00;;;;;;;;;;1729935;28;20768;-75
2023/04/11 03:07:07;;;;;;;0.00;0.00;;;;;;;;;;1732496;28;20534;-75
2023/04/11 03:07:58;;;;;;;0.00;0.00;;;;;;;;;;1735623;28;20277;-75
2023/04/11 03:08:51;;;;;;;0.00;0.00;;;;;;;;;;1731753;28;20234;-75
2023/04/11 03:09:42;;;;;;;0.00;0.00;;;;;;;;;;1736520;28;20306;-75
2023/04/11 03:10:34;;;;;;;0.00;0.00;;;;;;;;;;1729614;28;20218;-75
2023/04/11 03:11:25;;;;;;;0.00;0.00;;;;;;;;;;1733012;28;20207;-75
2023/04/11 03:12:18;;;;;;;0.00;0.00;;;;;;;;;;1735627;28;20207;-75
2023/04/11 03:13:11;;;;;;;0.00;0.00;;;;;;;;;;1733718;28;20350;-75
2023/04/11 03:14:03;;;;;;;0.00;0.00;;;;;;;;;;1728537;28;20237;-75
2023/04/11 03:14:54;;;;;;;0.00;0.00;;;;;;;;;;1735800;28;20304;-75
2023/04/11 03:15:46;;;;;;;0.00;0.00;;;;;;;;;;1731618;28;20277;-75
2023/04/11 03:16:37;;;;;;;0.00;0.00;;;;;;;;;;1742647;28;20609;-75
2023/04/11 03:17:29;;;;;;;0.00;0.00;;;;;;;;;;1738870;28;20207;-75
2023/04/11 03:18:21;;;;;;;0.00;0.00;;;;;;;;;;1732341;28;20216;-75
2023/04/11 03:19:13;;;;;;;0.00;0.00;;;;;;;;;;1733229;28;20208;-75
2023/04/11 03:20:06;;;;;;;0.00;0.00;;;;;;;;;;1735539;28;20601;-75
2023/04/11 03:20:57;;;;;;;0.00;0.00;;;;;;;;;;1738053;28;20211;-75
2023/04/11 03:21:48;;;;;;;0.00;0.00;;;;;;;;;;1738291;28;20211;-76
2023/04/11 03:22:40;;;;;;;0.00;0.00;;;;;;;;;;1737616;28;20276;-76
2023/04/11 03:23:31;;;;;;;0.00;0.00;;;;;;;;;;1736603;28;20219;-76
2023/04/11 03:24:23;;;;;;;0.00;0.00;;;;;;;;;;1744631;28;20313;-76
2023/04/11 03:25:14;;;;;;;0.00;0.00;;;;;;;;;;1740194;28;20264;-75
2023/04/11 03:26:07;;;;;;;0.00;0.00;;;;;;;;;;1737744;28;20203;-75
2023/04/11 03:26:58;;;;;;;0.00;0.00;;;;;;;;;;1735848;28;20310;-76
2023/04/11 03:27:50;;;;;;;0.00;0.00;;;;;;;;;;1736291;28;20203;-75
2023/04/11 03:28:42;;;;;;;0.00;0.00;;;;;;;;;;1736930;28;20619;-76
2023/04/11 03:29:34;;;;;;;0.00;0.00;;;;;;;;;;1738889;28;20234;-75
2023/04/11 03:30:25;;;;;;;0.00;0.00;;;;;;;;;;1731765;28;20281;-75
2023/04/11 03:31:17;;;;;;;0.00;0.00;;;;;;;;;;1733920;28;20652;-75
2023/04/11 03:32:08;;;;;;;0.00;0.00;;;;;;;;;;1737840;28;20212;-75
2023/04/11 03:33:00;;;;;;;0.00;0.00;;;;;;;;;;1731797;28;20789;-75
2023/04/11 03:33:51;;;;;;;0.00;0.00;;;;;;;;;;1731460;28;20534;-75
2023/04/11 03:34:43;;;;;;;0.00;0.00;;;;;;;;;;1736227;28;20290;-75
2023/04/11 03:35:35;;;;;;;0.00;0.00;;;;;;;;;;1734031;28;20216;-75
2023/04/11 03:36:27;;;;;;;0.00;0.00;;;;;;;;;;1737895;28;20261;-76
2023/04/11 03:37:18;;;;;;;0.00;0.00;;;;;;;;;;1735789;28;20219;-75
2023/04/11 03:38:10;;;;;;;0.00;0.00;;;;;;;;;;1735339;28;20208;-75
2023/04/11 03:39:01;;;;;;;0.00;0.00;;;;;;;;;;1734671;28;20656;-75
2023/04/11 03:39:53;;;;;;;0.10;0.10;;;;;;;;;;1736117;28;20265;-76
2023/04/11 03:40:44;;;;;;;0.00;0.00;;;;;;;;;;1734356;28;20273;-75
2023/04/11 03:41:36;;;;;;;0.00;0.00;;;;;;;;;;1738221;28;20637;-75
2023/04/11 03:42:27;;;;;;;0.00;0.00;;;;;;;;;;1735804;28;20242;-76
2023/04/11 03:43:19;;;;;;;0.00;0.00;;;;;;;;;;1735320;28;20278;-76
2023/04/11 03:44:11;;;;;;;0.00;0.00;;;;;;;;;;1738459;28;20227;-75
2023/04/11 03:45:07;;;;;;;0.00;0.00;;;;;;;;;;1734918;28;20216;-75
2023/04/11 03:45:58;;;;;;;0.10;0.10;;;;;;;;;;1731341;28;20266;-75
2023/04/11 03:46:50;;;;;;;0.00;0.00;;;;;;;;;;1738374;28;20207;-75
2023/04/11 03:47:41;;;;;;;0.00;0.00;;;;;;;;;;1737526;28;20614;-75
2023/04/11 03:48:33;;;;;;;0.00;0.00;;;;;;;;;;1732149;28;20543;-75
2023/04/11 03:49:24;;;;;;;0.00;0.00;;;;;;;;;;1734523;28;20284;-75
2023/04/11 03:50:16;;;;;;;0.00;0.00;;;;;;;;;;1735432;28;20521;-75
2023/04/11 03:51:07;;;;;;;0.00;0.00;;;;;;;;;;1734765;28;20280;-75
2023/04/11 03:51:59;;;;;;;0.00;0.00;;;;;;;;;;1735918;28;20212;-75
2023/04/11 03:52:50;;;;;;;0.00;0.00;;;;;;;;;;1736331;28;20230;-75
2023/04/11 03:53:42;;;;;;;0.00;0.00;;;;;;;;;;1736875;28;20211;-75
2023/04/11 03:54:33;;;;;;;0.00;0.00;;;;;;;;;;1739743;28;20694;-76
2023/04/11 03:55:25;;;;;;;0.00;0.00;;;;;;;;;;1733166;28;20619;-76
2023/04/11 03:56:16;;;;;;;0.10;0.10;;;;;;;;;;1735278;28;20537;-76
2023/04/11 03:57:08;;;;;;;0.00;0.00;;;;;;;;;;1739709;28;20616;-76
2023/04/11 03:57:59;;;;;;;0.00;0.00;;;;;;;;;;1736481;28;20243;-75
2023/04/11 03:58:50;;;;;;;0.00;0.00;;;;;;;;;;1732654;28;20208;-75
2023/04/11 03:59:46;;;;;;;0.00;0.00;;;;;;;;;;1737815;28;20231;-75
2023/04/11 04:00:37;;;;;;;0.00;0.00;;;;;;;;;;1735112;28;20261;-75
2023/04/11 04:01:30;;;;;;;0.00;0.00;;;;;;;;;;1734532;28;20668;-75
2023/04/11 04:02:21;;;;;;;0.00;0.00;;;;;;;;;;1732713;28;20254;-75
2023/04/11 04:03:13;;;;;;;0.10;0.10;;;;;;;;;;1734666;28;20208;-75
2023/04/11 04:04:05;;;;;;;0.00;0.00;;;;;;;;;;1736463;28;20216;-75
2023/04/11 04:04:58;;;;;;;0.05;0.05;;;;;;;;;;1737065;28;20533;-75
2023/04/11 04:05:49;;;;;;;0.10;0.10;;;;;;;;;;1739715;28;20226;-75
2023/04/11 04:06:41;;;;;;;0.00;0.00;;;;;;;;;;1739375;28;20203;-75
2023/04/11 04:07:34;;;;;;;0.00;0.00;;;;;;;;;;1738104;28;20219;-75
2023/04/11 04:08:26;;;;;;;0.00;0.00;;;;;;;;;;1736785;28;20636;-75
2023/04/11 04:09:17;;;;;;;0.00;0.00;;;;;;;;;;1739482;28;20215;-75
2023/04/11 04:10:09;;;;;;;0.03;0.03;;;;;;;;;;1735941;28;20199;-74
2023/04/11 04:11:00;;;;;;;0.00;0.00;;;;;;;;;;1732253;28;20247;-74
2023/04/11 04:11:52;;;;;;;0.00;0.00;;;;;;;;;;1739730;28;20625;-74
2023/04/11 04:12:43;;;;;;;0.00;0.00;;;;;;;;;;1738305;28;20517;-74
2023/04/11 04:13:35;;;;;;;0.05;0.05;;;;;;;;;;1738078;28;20195;-74
2023/04/11 04:14:26;;;;;;;0.00;0.00;;;;;;;;;;1742634;28;20218;-74
2023/04/11 04:15:20;;;;;;;0.00;0.00;;;;;;;;;;1735138;28;20236;-74
2023/04/11 04:16:11;;;;;;;0.03;0.03;;;;;;;;;;1732772;28;20223;-75
2023/04/11 04:17:03;;;;;;;0.00;0.00;;;;;;;;;;1733028;28;20720;-75
2023/04/11 04:17:54;;;;;;;0.00;0.00;;;;;;;;;;1733079;28;20211;-75
2023/04/11 04:18:46;;;;;;;0.00;0.00;;;;;;;;;;1732667;28;20212;-75
2023/04/11 04:19:37;;;;;;;0.00;0.00;;;;;;;;;;1733165;28;20208;-75
2023/04/11 04:20:29;;;;;;;0.00;0.00;;;;;;;;;;1733165;28;21005;-75
2023/04/11 04:21:20;;;;;;;0.00;0.00;;;;;;;;;;1732857;28;20220;-75
2023/04/11 04:22:12;;;;;;;0.00;0.00;;;;;;;;;;1732346;28;20207;-75
2023/04/11 04:23:03;;;;;;;0.00;0.00;;;;;;;;;;1732912;28;20299;-75
2023/04/11 04:23:55;;;;;;;0.00;0.00;;;;;;;;;;1732626;28;20322;-75
2023/04/11 04:24:46;;;;;;;0.00;0.00;;;;;;;;;;1732619;28;20215;-75
2023/04/11 04:25:40;;;;;;;0.00;0.00;;;;;;;;;;1732947;28;20212;-75
2023/04/11 04:26:31;;;;;;;0.10;0.10;;;;;;;;;;1731220;28;20220;-75
2023/04/11 04:27:24;;;;;;;0.00;0.00;;;;;;;;;;1732823;28;20645;-75
2023/04/11 04:28:19;;;;;;;0.00;0.00;;;;;;;;;;1732799;28;20254;-75
2023/04/11 04:29:11;;;;;;;0.00;0.00;;;;;;;;;;1735399;28;20211;-75
2023/04/11 04:30:03;;;;;;;0.03;0.03;;;;;;;;;;1736530;28;20949;-76
2023/04/11 04:30:56;;;;;;;0.00;0.00;;;;;;;;;;1734424;28;20204;-75
2023/04/11 04:31:49;;;;;;;0.30;0.30;;;;;;;;;;1727497;28;20216;-75
2023/04/11 04:32:42;;;;;;;0.00;0.00;;;;;;;;;;1732276;28;20684;-75
2023/04/11 04:33:33;;;;;;;0.10;0.10;;;;;;;;;;1733958;28;20278;-75
2023/04/11 04:34:27;;;;;;;0.10;0.10;;;;;;;;;;1732890;28;20254;-75
2023/04/11 04:35:19;;;;;;;0.00;0.00;;;;;;;;;;1732849;28;20239;-75
2023/04/11 04:36:11;;;;;;;0.00;0.00;;;;;;;;;;1732840;28;20208;-75
2023/04/11 04:37:02;;;;;;;0.00;0.00;;;;;;;;;;1732537;28;20530;-75
2023/04/11 04:37:54;;;;;;;0.00;0.00;;;;;;;;;;1733481;28;20588;-75
2023/04/11 04:38:46;;;;;;;0.00;0.00;;;;;;;;;;1732351;28;20258;-75
2023/04/11 04:39:40;;;;;;;0.00;0.00;;;;;;;;;;1733097;28;20661;-75
2023/04/11 04:40:31;;;;;;;0.00;0.00;;;;;;;;;;1733228;28;20216;-75
2023/04/11 04:41:23;;;;;;;0.00;0.00;;;;;;;;;;1732682;28;20211;-74
2023/04/11 04:42:14;;;;;;;0.10;0.10;;;;;;;;;;1732287;28;20281;-74
2023/04/11 04:43:10;;;;;;;0.00;0.00;;;;;;;;;;1732579;28;20207;-74
2023/04/11 04:44:04;;;;;;;0.00;0.00;;;;;;;;;;1732848;28;20215;-74
2023/04/11 04:44:56;;;;;;;0.00;0.00;;;;;;;;;;1732912;28;20200;-74
2023/04/11 04:45:47;;;;;;;0.00;0.00;;;;;;;;;;1733042;28;20293;-74
2023/04/11 04:46:41;;;;;;;0.00;0.00;;;;;;;;;;1733385;28;20522;-75
2023/04/11 04:47:32;;;;;;;0.00;0.00;;;;;;;;;;1731978;28;20235;-75
2023/04/11 04:48:25;;;;;;;0.00;0.00;;;;;;;;;;1733228;28;20640;-75
2023/04/11 04:49:16;;;;;;;0.00;0.00;;;;;;;;;;1732458;28;20223;-75
2023/04/11 04:50:08;;;;;;;0.00;0.00;;;;;;;;;;1733552;28;20306;-75
2023/04/11 04:50:59;;;;;;;0.00;0.00;;;;;;;;;;1732857;28;20316;-75
2023/04/11 04:51:50;;;;;;;0.00;0.00;;;;;;;;;;1733052;28;20200;-75
2023/04/11 04:52:42;;;;;;;0.10;0.10;;;;;;;;;;1738968;28;20214;-75
2023/04/11 04:53:37;;;;;;;0.00;0.00;;;;;;;;;;1733468;28;20219;-75
2023/04/11 04:54:30;;;;;;;0.00;0.00;;;;;;;;;;1733198;28;20521;-75
2023/04/11 04:55:21;;;;;;;0.00;0.00;;;;;;;;;;1733930;28;20252;-75
2023/04/11 04:56:13;;;;;;;0.03;0.03;;;;;;;;;;1735259;28;20227;-75
2023/04/11 04:57:04;;;;;;;0.10;0.10;;;;;;;;;;1732983;28;20667;-75
2023/04/11 04:57:56;;;;;;;0.00;0.00;;;;;;;;;;1736899;28;20698;-75
2023/04/11 04:58:47;;;;;;;0.00;0.00;;;;;;;;;;1733042;28;20208;-75
2023/04/11 04:59:39;;;;;;;0.10;0.10;;;;;;;;;;1733040;28;20212;-75
2023/04/11 05:00:32;;;;;;;0.00;0.00;;;;;;;;;;1728671;28;20673;-75
2023/04/11 05:01:25;;;;;;;0.00;0.00;;;;;;;;;;1731932;28;20618;-75
2023/04/11 05:02:17;;;;;;;0.10;0.10;;;;;;;;;;1731775;28;20212;-75
2023/04/11 05:03:09;;;;;;;0.00;0.00;;;;;;;;;;1732909;28;20362;-75
2023/04/11 05:04:00;;;;;;;0.00;0.00;;;;;;;;;;1732353;28;20733;-75
2023/04/11 05:04:52;;;;;;;0.00;0.00;;;;;;;;;;1732605;28;20204;-75
2023/04/11 05:05:44;;;;;;;0.00;0.00;;;;;;;;;;1732196;28;20633;-75
2023/04/11 05:06:36;;;;;;;0.00;0.00;;;;;;;;;;1732353;28;20619;-75
2023/04/11 05:07:27;;;;;;;0.10;0.10;;;;;;;;;;1732347;28;20250;-75
2023/04/11 05:08:20;;;;;;;0.00;0.00;;;;;;;;;;1732466;28;20614;-75
2023/04/11 05:09:11;;;;;;;0.00;0.00;;;;;;;;;;1732587;28;20208;-75
2023/04/11 05:10:04;;;;;;;0.00;0.00;;;;;;;;;;1732835;28;20312;-76
2023/04/11 05:10:55;;;;;;;0.00;0.00;;;;;;;;;;1732306;28;20661;-76
2023/04/11 05:11:49;;;;;;;0.00;0.00;;;;;;;;;;1732726;28;20587;-76